sensor_id;sensor_type;location;lat;lon;timestamp;P1;durP1;ratioP1;P2;durP2;ratioP2
1412;SDS011;701;52.526;13.408;2022-11-15T00:00:10;51.10;;;24.75;;
1412;SDS011;701;52.526;13.408;2022-11-15T00:02:55;47.28;;;24.42;;
1412;SDS011;701;52.526;13.408;2022-11-15T00:05:39;52.45;;;25.00;;
1412;SDS011;701;52.526;13.408;2022-11-15T00:08:23;50.37;;;23.57;;
1412;SDS011;701;52.526;13.408;2022-11-15T00:11:08;52.22;;;24.88;;
1412;SDS011;701;52.526;13.408;2022-11-15T00:13:55;52.90;;;25.10;;
1412;SDS011;701;52.526;13.408;2022-11-15T00:16:39;52.33;;;23.92;;
1412;SDS011;701;52.526;13.408;2022-11-15T00:19:24;53.35;;;25.40;;
1412;SDS011;701;52.526;13.408;2022-11-15T00:22:08;56.47;;;23.80;;
1412;SDS011;701;52.526;13.408;2022-11-15T00:24:52;51.25;;;25.02;;
1412;SDS011;701;52.526;13.408;2022-11-15T00:27:36;56.05;;;24.83;;
1412;SDS011;701;52.526;13.408;2022-11-15T00:30:20;49.40;;;24.17;;
1412;SDS011;701;52.526;13.408;2022-11-15T00:33:05;50.45;;;25.23;;
1412;SDS011;701;52.526;13.408;2022-11-15T00:35:50;53.37;;;24.77;;
1412;SDS011;701;52.526;13.408;2022-11-15T00:38:35;56.40;;;24.92;;
1412;SDS011;701;52.526;13.408;2022-11-15T00:41:21;52.38;;;23.85;;
1412;SDS011;701;52.526;13.408;2022-11-15T00:44:05;50.55;;;24.58;;
1412;SDS011;701;52.526;13.408;2022-11-15T00:46:49;50.72;;;24.40;;
1412;SDS011;701;52.526;13.408;2022-11-15T00:49:33;54.67;;;24.90;;
1412;SDS011;701;52.526;13.408;2022-11-15T00:52:17;54.15;;;24.83;;
1412;SDS011;701;52.526;13.408;2022-11-15T00:55:02;52.33;;;24.00;;
1412;SDS011;701;52.526;13.408;2022-11-15T00:57:46;53.10;;;25.10;;
1412;SDS011;701;52.526;13.408;2022-11-15T01:00:31;55.63;;;25.48;;
1412;SDS011;701;52.526;13.408;2022-11-15T01:03:15;50.97;;;23.43;;
1412;SDS011;701;52.526;13.408;2022-11-15T01:05:59;49.88;;;23.67;;
1412;SDS011;701;52.526;13.408;2022-11-15T01:08:43;47.83;;;24.40;;
1412;SDS011;701;52.526;13.408;2022-11-15T01:11:29;58.17;;;25.10;;
1412;SDS011;701;52.526;13.408;2022-11-15T01:14:13;50.80;;;24.27;;
1412;SDS011;701;52.526;13.408;2022-11-15T01:16:57;53.60;;;25.30;;
1412;SDS011;701;52.526;13.408;2022-11-15T01:19:42;50.42;;;23.50;;
1412;SDS011;701;52.526;13.408;2022-11-15T01:22:26;54.78;;;25.05;;
1412;SDS011;701;52.526;13.408;2022-11-15T01:25:10;56.45;;;25.80;;
1412;SDS011;701;52.526;13.408;2022-11-15T01:27:57;51.88;;;24.83;;
1412;SDS011;701;52.526;13.408;2022-11-15T01:30:41;49.03;;;24.20;;
1412;SDS011;701;52.526;13.408;2022-11-15T01:33:26;55.92;;;24.27;;
1412;SDS011;701;52.526;13.408;2022-11-15T01:36:13;49.78;;;25.05;;
1412;SDS011;701;52.526;13.408;2022-11-15T01:38:59;51.53;;;24.63;;
1412;SDS011;701;52.526;13.408;2022-11-15T01:41:43;49.95;;;25.10;;
1412;SDS011;701;52.526;13.408;2022-11-15T01:47:23;52.80;;;24.67;;
1412;SDS011;701;52.526;13.408;2022-11-15T01:50:13;59.67;;;26.08;;
1412;SDS011;701;52.526;13.408;2022-11-15T01:53:01;58.05;;;26.40;;
1412;SDS011;701;52.526;13.408;2022-11-15T01:55:45;56.65;;;26.13;;
1412;SDS011;701;52.526;13.408;2022-11-15T01:58:29;52.67;;;24.83;;
1412;SDS011;701;52.526;13.408;2022-11-15T02:01:14;51.53;;;24.73;;
1412;SDS011;701;52.526;13.408;2022-11-15T02:04:20;55.50;;;25.70;;
1412;SDS011;701;52.526;13.408;2022-11-15T02:07:08;52.28;;;23.75;;
1412;SDS011;701;52.526;13.408;2022-11-15T02:09:55;51.28;;;23.23;;
1412;SDS011;701;52.526;13.408;2022-11-15T02:12:48;52.37;;;24.67;;
1412;SDS011;701;52.526;13.408;2022-11-15T02:15:36;50.20;;;24.40;;
1412;SDS011;701;52.526;13.408;2022-11-15T02:18:32;50.83;;;25.10;;
1412;SDS011;701;52.526;13.408;2022-11-15T02:28:00;50.87;;;23.63;;
1412;SDS011;701;52.526;13.408;2022-11-15T02:31:02;55.22;;;24.38;;
1412;SDS011;701;52.526;13.408;2022-11-15T02:37:07;51.00;;;23.63;;
1412;SDS011;701;52.526;13.408;2022-11-15T02:43:10;48.97;;;25.20;;
1412;SDS011;701;52.526;13.408;2022-11-15T02:46:15;54.80;;;25.73;;
1412;SDS011;701;52.526;13.408;2022-11-15T02:49:28;54.55;;;25.58;;
1412;SDS011;701;52.526;13.408;2022-11-15T02:52:18;53.97;;;25.42;;
1412;SDS011;701;52.526;13.408;2022-11-15T02:55:05;57.72;;;25.25;;
1412;SDS011;701;52.526;13.408;2022-11-15T03:04:06;55.15;;;25.48;;
1412;SDS011;701;52.526;13.408;2022-11-15T03:07:04;52.63;;;25.48;;
1412;SDS011;701;52.526;13.408;2022-11-15T03:22:21;53.40;;;25.05;;
1412;SDS011;701;52.526;13.408;2022-11-15T03:25:08;51.90;;;24.60;;
1412;SDS011;701;52.526;13.408;2022-11-15T03:27:57;53.23;;;24.70;;
1412;SDS011;701;52.526;13.408;2022-11-15T03:30:45;58.13;;;25.75;;
1412;SDS011;701;52.526;13.408;2022-11-15T03:33:32;50.50;;;24.83;;
1412;SDS011;701;52.526;13.408;2022-11-15T03:36:17;52.80;;;23.52;;
1412;SDS011;701;52.526;13.408;2022-11-15T03:39:04;49.10;;;24.13;;
1412;SDS011;701;52.526;13.408;2022-11-15T03:45:22;47.78;;;23.40;;
1412;SDS011;701;52.526;13.408;2022-11-15T03:48:14;49.17;;;24.88;;
1412;SDS011;701;52.526;13.408;2022-11-15T03:51:03;54.38;;;24.58;;
1412;SDS011;701;52.526;13.408;2022-11-15T03:53:48;52.47;;;23.80;;
1412;SDS011;701;52.526;13.408;2022-11-15T03:56:33;51.73;;;23.17;;
1412;SDS011;701;52.526;13.408;2022-11-15T03:59:17;51.42;;;23.33;;
1412;SDS011;701;52.526;13.408;2022-11-15T04:02:02;47.88;;;23.60;;
1412;SDS011;701;52.526;13.408;2022-11-15T04:04:45;50.53;;;23.77;;
1412;SDS011;701;52.526;13.408;2022-11-15T04:07:30;49.28;;;23.40;;
1412;SDS011;701;52.526;13.408;2022-11-15T04:10:14;47.97;;;22.57;;
1412;SDS011;701;52.526;13.408;2022-11-15T04:12:58;52.78;;;24.13;;
1412;SDS011;701;52.526;13.408;2022-11-15T04:15:42;51.47;;;24.90;;
1412;SDS011;701;52.526;13.408;2022-11-15T04:18:26;47.28;;;23.67;;
1412;SDS011;701;52.526;13.408;2022-11-15T04:21:11;53.08;;;24.40;;
1412;SDS011;701;52.526;13.408;2022-11-15T04:24:14;50.70;;;24.23;;
1412;SDS011;701;52.526;13.408;2022-11-15T04:26:58;50.13;;;23.05;;
1412;SDS011;701;52.526;13.408;2022-11-15T04:29:43;48.83;;;23.48;;
1412;SDS011;701;52.526;13.408;2022-11-15T04:32:27;47.40;;;22.08;;
1412;SDS011;701;52.526;13.408;2022-11-15T04:35:11;46.55;;;22.95;;
1412;SDS011;701;52.526;13.408;2022-11-15T04:37:56;44.90;;;22.80;;
1412;SDS011;701;52.526;13.408;2022-11-15T04:40:41;48.63;;;23.63;;
1412;SDS011;701;52.526;13.408;2022-11-15T04:43:25;47.58;;;23.48;;
1412;SDS011;701;52.526;13.408;2022-11-15T04:46:10;49.35;;;22.88;;
1412;SDS011;701;52.526;13.408;2022-11-15T04:48:54;47.55;;;23.88;;
1412;SDS011;701;52.526;13.408;2022-11-15T04:51:38;48.80;;;23.57;;
1412;SDS011;701;52.526;13.408;2022-11-15T04:54:22;49.35;;;23.42;;
1412;SDS011;701;52.526;13.408;2022-11-15T04:57:06;48.55;;;22.83;;
1412;SDS011;701;52.526;13.408;2022-11-15T04:59:51;45.22;;;22.70;;
1412;SDS011;701;52.526;13.408;2022-11-15T05:02:35;46.55;;;22.75;;
1412;SDS011;701;52.526;13.408;2022-11-15T05:05:38;48.33;;;22.17;;
1412;SDS011;701;52.526;13.408;2022-11-15T05:08:23;43.88;;;22.40;;
1412;SDS011;701;52.526;13.408;2022-11-15T05:11:07;48.53;;;23.50;;
1412;SDS011;701;52.526;13.408;2022-11-15T05:13:51;59.28;;;27.00;;
1412;SDS011;701;52.526;13.408;2022-11-15T05:16:35;49.30;;;22.70;;
1412;SDS011;701;52.526;13.408;2022-11-15T05:19:20;46.60;;;23.07;;
1412;SDS011;701;52.526;13.408;2022-11-15T05:22:04;50.30;;;23.73;;
1412;SDS011;701;52.526;13.408;2022-11-15T05:24:48;49.90;;;23.30;;
1412;SDS011;701;52.526;13.408;2022-11-15T05:27:33;51.17;;;23.95;;
1412;SDS011;701;52.526;13.408;2022-11-15T05:30:18;51.70;;;23.25;;
1412;SDS011;701;52.526;13.408;2022-11-15T05:33:03;51.23;;;23.20;;
1412;SDS011;701;52.526;13.408;2022-11-15T05:35:54;47.17;;;23.42;;
1412;SDS011;701;52.526;13.408;2022-11-15T05:38:43;46.88;;;23.25;;
1412;SDS011;701;52.526;13.408;2022-11-15T05:41:36;48.78;;;22.73;;
1412;SDS011;701;52.526;13.408;2022-11-15T05:44:23;46.42;;;22.77;;
1412;SDS011;701;52.526;13.408;2022-11-15T05:47:17;50.77;;;23.50;;
1412;SDS011;701;52.526;13.408;2022-11-15T05:50:05;48.15;;;23.05;;
1412;SDS011;701;52.526;13.408;2022-11-15T05:52:50;48.63;;;23.60;;
1412;SDS011;701;52.526;13.408;2022-11-15T05:55:35;50.30;;;24.13;;
1412;SDS011;701;52.526;13.408;2022-11-15T05:58:22;51.47;;;22.95;;
1412;SDS011;701;52.526;13.408;2022-11-15T06:01:07;49.73;;;22.97;;
1412;SDS011;701;52.526;13.408;2022-11-15T06:03:51;47.88;;;23.48;;
1412;SDS011;701;52.526;13.408;2022-11-15T06:06:35;44.92;;;22.55;;
1412;SDS011;701;52.526;13.408;2022-11-15T06:09:19;50.40;;;22.30;;
1412;SDS011;701;52.526;13.408;2022-11-15T06:12:04;50.85;;;23.60;;
1412;SDS011;701;52.526;13.408;2022-11-15T06:14:48;50.90;;;23.33;;
1412;SDS011;701;52.526;13.408;2022-11-15T06:17:32;46.92;;;22.73;;
1412;SDS011;701;52.526;13.408;2022-11-15T06:20:16;48.17;;;23.50;;
1412;SDS011;701;52.526;13.408;2022-11-15T06:23:02;49.25;;;22.77;;
1412;SDS011;701;52.526;13.408;2022-11-15T06:25:48;49.20;;;22.63;;
1412;SDS011;701;52.526;13.408;2022-11-15T06:28:32;45.43;;;22.80;;
1412;SDS011;701;52.526;13.408;2022-11-15T06:31:17;49.13;;;23.38;;
1412;SDS011;701;52.526;13.408;2022-11-15T06:34:02;48.20;;;23.10;;
1412;SDS011;701;52.526;13.408;2022-11-15T06:36:46;45.97;;;22.52;;
1412;SDS011;701;52.526;13.408;2022-11-15T06:39:30;44.03;;;21.70;;
1412;SDS011;701;52.526;13.408;2022-11-15T06:42:14;49.27;;;22.70;;
1412;SDS011;701;52.526;13.408;2022-11-15T06:44:58;48.55;;;23.40;;
1412;SDS011;701;52.526;13.408;2022-11-15T06:47:46;47.42;;;22.17;;
1412;SDS011;701;52.526;13.408;2022-11-15T06:50:31;47.25;;;22.08;;
1412;SDS011;701;52.526;13.408;2022-11-15T06:53:15;52.63;;;22.98;;
1412;SDS011;701;52.526;13.408;2022-11-15T06:55:59;49.37;;;23.60;;
1412;SDS011;701;52.526;13.408;2022-11-15T06:58:45;52.60;;;23.42;;
1412;SDS011;701;52.526;13.408;2022-11-15T07:01:29;49.58;;;23.75;;
1412;SDS011;701;52.526;13.408;2022-11-15T07:04:13;45.70;;;22.08;;
1412;SDS011;701;52.526;13.408;2022-11-15T07:06:57;45.47;;;22.42;;
1412;SDS011;701;52.526;13.408;2022-11-15T07:09:41;47.77;;;22.63;;
1412;SDS011;701;52.526;13.408;2022-11-15T07:12:26;54.10;;;23.33;;
1412;SDS011;701;52.526;13.408;2022-11-15T07:15:10;51.10;;;24.48;;
1412;SDS011;701;52.526;13.408;2022-11-15T07:17:54;47.25;;;23.33;;
1412;SDS011;701;52.526;13.408;2022-11-15T07:20:38;53.75;;;24.00;;
1412;SDS011;701;52.526;13.408;2022-11-15T07:23:23;48.93;;;22.70;;
1412;SDS011;701;52.526;13.408;2022-11-15T07:26:07;48.17;;;22.63;;
1412;SDS011;701;52.526;13.408;2022-11-15T07:28:52;54.75;;;24.55;;
1412;SDS011;701;52.526;13.408;2022-11-15T07:31:37;54.40;;;24.25;;
1412;SDS011;701;52.526;13.408;2022-11-15T07:34:21;47.88;;;23.67;;
1412;SDS011;701;52.526;13.408;2022-11-15T07:37:07;54.40;;;23.53;;
1412;SDS011;701;52.526;13.408;2022-11-15T07:39:51;46.45;;;22.52;;
1412;SDS011;701;52.526;13.408;2022-11-15T07:42:35;50.90;;;23.55;;
1412;SDS011;701;52.526;13.408;2022-11-15T07:45:42;53.15;;;22.80;;
1412;SDS011;701;52.526;13.408;2022-11-15T07:48:28;48.88;;;22.60;;
1412;SDS011;701;52.526;13.408;2022-11-15T07:51:13;43.43;;;22.23;;
1412;SDS011;701;52.526;13.408;2022-11-15T07:53:59;45.85;;;22.35;;
1412;SDS011;701;52.526;13.408;2022-11-15T07:56:43;51.27;;;21.40;;
1412;SDS011;701;52.526;13.408;2022-11-15T07:59:28;49.45;;;21.55;;
1412;SDS011;701;52.526;13.408;2022-11-15T08:02:13;47.92;;;22.98;;
1412;SDS011;701;52.526;13.408;2022-11-15T08:05:00;48.10;;;21.58;;
1412;SDS011;701;52.526;13.408;2022-11-15T08:07:44;44.17;;;21.70;;
1412;SDS011;701;52.526;13.408;2022-11-15T08:10:28;42.93;;;21.33;;
1412;SDS011;701;52.526;13.408;2022-11-15T08:13:13;46.28;;;22.00;;
1412;SDS011;701;52.526;13.408;2022-11-15T08:15:58;50.22;;;23.85;;
1412;SDS011;701;52.526;13.408;2022-11-15T08:18:43;51.53;;;22.75;;
1412;SDS011;701;52.526;13.408;2022-11-15T08:21:28;45.03;;;22.48;;
1412;SDS011;701;52.526;13.408;2022-11-15T08:24:12;47.67;;;21.57;;
1412;SDS011;701;52.526;13.408;2022-11-15T08:26:56;43.00;;;21.55;;
1412;SDS011;701;52.526;13.408;2022-11-15T08:29:44;49.80;;;22.08;;
1412;SDS011;701;52.526;13.408;2022-11-15T08:32:30;41.45;;;21.30;;
1412;SDS011;701;52.526;13.408;2022-11-15T08:35:15;41.95;;;21.27;;
1412;SDS011;701;52.526;13.408;2022-11-15T08:37:59;43.33;;;21.50;;
1412;SDS011;701;52.526;13.408;2022-11-15T08:40:43;48.83;;;21.95;;
1412;SDS011;701;52.526;13.408;2022-11-15T08:43:27;46.22;;;21.10;;
1412;SDS011;701;52.526;13.408;2022-11-15T08:46:12;43.42;;;21.15;;
1412;SDS011;701;52.526;13.408;2022-11-15T08:48:57;39.47;;;20.60;;
1412;SDS011;701;52.526;13.408;2022-11-15T08:51:41;40.80;;;20.60;;
1412;SDS011;701;52.526;13.408;2022-11-15T08:54:26;39.33;;;20.90;;
1412;SDS011;701;52.526;13.408;2022-11-15T08:57:10;41.17;;;21.85;;
1412;SDS011;701;52.526;13.408;2022-11-15T08:59:54;42.17;;;20.80;;
1412;SDS011;701;52.526;13.408;2022-11-15T09:02:39;39.53;;;20.13;;
1412;SDS011;701;52.526;13.408;2022-11-15T09:05:24;40.37;;;20.80;;
1412;SDS011;701;52.526;13.408;2022-11-15T09:08:08;42.00;;;21.10;;
1412;SDS011;701;52.526;13.408;2022-11-15T09:10:53;41.70;;;19.88;;
1412;SDS011;701;52.526;13.408;2022-11-15T09:13:37;41.85;;;20.92;;
1412;SDS011;701;52.526;13.408;2022-11-15T09:16:22;41.00;;;19.65;;
1412;SDS011;701;52.526;13.408;2022-11-15T09:19:06;47.27;;;23.27;;
1412;SDS011;701;52.526;13.408;2022-11-15T09:21:50;45.65;;;21.48;;
1412;SDS011;701;52.526;13.408;2022-11-15T09:24:35;40.20;;;20.23;;
1412;SDS011;701;52.526;13.408;2022-11-15T09:27:19;36.72;;;19.55;;
1412;SDS011;701;52.526;13.408;2022-11-15T09:30:04;35.58;;;18.73;;
1412;SDS011;701;52.526;13.408;2022-11-15T09:32:48;41.93;;;19.40;;
1412;SDS011;701;52.526;13.408;2022-11-15T09:35:33;33.28;;;18.08;;
1412;SDS011;701;52.526;13.408;2022-11-15T09:38:18;37.20;;;18.77;;
1412;SDS011;701;52.526;13.408;2022-11-15T09:41:24;32.40;;;17.15;;
1412;SDS011;701;52.526;13.408;2022-11-15T09:50:31;32.42;;;15.80;;
1412;SDS011;701;52.526;13.408;2022-11-15T09:53:36;33.08;;;14.77;;
1412;SDS011;701;52.526;13.408;2022-11-15T09:56:15;27.63;;;15.05;;
1412;SDS011;701;52.526;13.408;2022-11-15T10:04:05;30.88;;;15.30;;
1412;SDS011;701;52.526;13.408;2022-11-15T10:06:31;33.65;;;16.00;;
1412;SDS011;701;52.526;13.408;2022-11-15T10:09:06;25.90;;;14.60;;
1412;SDS011;701;52.526;13.408;2022-11-15T10:11:41;26.83;;;14.77;;
1412;SDS011;701;52.526;13.408;2022-11-15T10:14:09;30.03;;;15.33;;
1412;SDS011;701;52.526;13.408;2022-11-15T10:24:38;28.97;;;14.33;;
1412;SDS011;701;52.526;13.408;2022-11-15T10:27:08;29.75;;;15.50;;
1412;SDS011;701;52.526;13.408;2022-11-15T10:29:40;27.98;;;14.90;;
1412;SDS011;701;52.526;13.408;2022-11-15T10:32:10;26.10;;;14.45;;
1412;SDS011;701;52.526;13.408;2022-11-15T10:34:37;24.48;;;14.00;;
1412;SDS011;701;52.526;13.408;2022-11-15T10:37:03;27.38;;;14.32;;
1412;SDS011;701;52.526;13.408;2022-11-15T10:39:28;27.23;;;14.80;;
1412;SDS011;701;52.526;13.408;2022-11-15T10:41:54;33.30;;;18.70;;
1412;SDS011;701;52.526;13.408;2022-11-15T10:44:27;28.17;;;15.48;;
1412;SDS011;701;52.526;13.408;2022-11-15T10:49:24;27.67;;;14.27;;
1412;SDS011;701;52.526;13.408;2022-11-15T10:54:25;27.47;;;13.70;;
1412;SDS011;701;52.526;13.408;2022-11-15T10:56:55;25.20;;;13.25;;
1412;SDS011;701;52.526;13.408;2022-11-15T10:59:25;26.08;;;13.90;;
1412;SDS011;701;52.526;13.408;2022-11-15T11:01:54;27.00;;;13.52;;
1412;SDS011;701;52.526;13.408;2022-11-15T11:04:20;25.77;;;14.23;;
1412;SDS011;701;52.526;13.408;2022-11-15T11:12:01;28.27;;;14.75;;
1412;SDS011;701;52.526;13.408;2022-11-15T11:14:32;30.65;;;14.77;;
1412;SDS011;701;52.526;13.408;2022-11-15T11:30:35;24.25;;;13.07;;
1412;SDS011;701;52.526;13.408;2022-11-15T11:33:22;28.38;;;14.32;;
1412;SDS011;701;52.526;13.408;2022-11-15T11:41:42;27.00;;;13.07;;
1412;SDS011;701;52.526;13.408;2022-11-15T11:49:51;22.52;;;13.13;;
1412;SDS011;701;52.526;13.408;2022-11-15T11:52:28;26.52;;;13.88;;
1412;SDS011;701;52.526;13.408;2022-11-15T11:55:18;26.33;;;13.70;;
1412;SDS011;701;52.526;13.408;2022-11-15T11:57:53;24.58;;;13.02;;
1412;SDS011;701;52.526;13.408;2022-11-15T12:00:25;24.63;;;12.70;;
1412;SDS011;701;52.526;13.408;2022-11-15T12:05:35;25.75;;;14.23;;
1412;SDS011;701;52.526;13.408;2022-11-15T12:08:17;24.57;;;14.17;;
1412;SDS011;701;52.526;13.408;2022-11-15T12:10:52;25.30;;;14.32;;
1412;SDS011;701;52.526;13.408;2022-11-15T12:13:26;25.20;;;13.98;;
1412;SDS011;701;52.526;13.408;2022-11-15T12:15:59;28.42;;;15.35;;
1412;SDS011;701;52.526;13.408;2022-11-15T12:18:34;26.83;;;13.88;;
1412;SDS011;701;52.526;13.408;2022-11-15T12:21:02;25.23;;;13.10;;
1412;SDS011;701;52.526;13.408;2022-11-15T12:23:41;27.67;;;13.80;;
1412;SDS011;701;52.526;13.408;2022-11-15T12:26:15;24.40;;;13.75;;
1412;SDS011;701;52.526;13.408;2022-11-15T12:28:59;25.38;;;13.52;;
1412;SDS011;701;52.526;13.408;2022-11-15T12:31:35;26.15;;;14.57;;
1412;SDS011;701;52.526;13.408;2022-11-15T12:36:50;50.15;;;23.65;;
1412;SDS011;701;52.526;13.408;2022-11-15T12:39:16;34.10;;;16.65;;
1412;SDS011;701;52.526;13.408;2022-11-15T13:22:43;28.95;;;13.27;;
1412;SDS011;701;52.526;13.408;2022-11-15T13:30:41;24.52;;;12.90;;
1412;SDS011;701;52.526;13.408;2022-11-15T13:35:53;28.58;;;13.77;;
1412;SDS011;701;52.526;13.408;2022-11-15T13:40:51;22.17;;;12.23;;
1412;SDS011;701;52.526;13.408;2022-11-15T13:48:36;22.02;;;12.07;;
1412;SDS011;701;52.526;13.408;2022-11-15T13:51:03;24.10;;;11.85;;
1412;SDS011;701;52.526;13.408;2022-11-15T13:53:32;21.95;;;12.68;;
1412;SDS011;701;52.526;13.408;2022-11-15T13:55:59;21.60;;;11.38;;
1412;SDS011;701;52.526;13.408;2022-11-15T13:58:28;22.23;;;11.57;;
1412;SDS011;701;52.526;13.408;2022-11-15T14:00:58;23.55;;;11.80;;
1412;SDS011;701;52.526;13.408;2022-11-15T14:03:33;25.15;;;11.50;;
1412;SDS011;701;52.526;13.408;2022-11-15T14:06:11;20.42;;;11.10;;
1412;SDS011;701;52.526;13.408;2022-11-15T14:08:40;22.88;;;11.60;;
1412;SDS011;701;52.526;13.408;2022-11-15T14:11:28;21.77;;;11.60;;
1412;SDS011;701;52.526;13.408;2022-11-15T14:16:32;19.23;;;10.88;;
1412;SDS011;701;52.526;13.408;2022-11-15T14:19:00;22.48;;;11.90;;
1412;SDS011;701;52.526;13.408;2022-11-15T14:21:25;21.85;;;10.80;;
1412;SDS011;701;52.526;13.408;2022-11-15T14:23:51;20.13;;;11.33;;
1412;SDS011;701;52.526;13.408;2022-11-15T14:26:27;20.83;;;11.50;;
1412;SDS011;701;52.526;13.408;2022-11-15T14:28:55;26.63;;;11.57;;
1412;SDS011;701;52.526;13.408;2022-11-15T14:31:21;24.83;;;12.30;;
1412;SDS011;701;52.526;13.408;2022-11-15T14:33:47;22.98;;;12.38;;
1412;SDS011;701;52.526;13.408;2022-11-15T14:36:14;21.55;;;12.32;;
1412;SDS011;701;52.526;13.408;2022-11-15T14:38:41;23.65;;;12.32;;
1412;SDS011;701;52.526;13.408;2022-11-15T14:41:21;21.88;;;11.23;;
1412;SDS011;701;52.526;13.408;2022-11-15T14:43:49;23.00;;;11.27;;
1412;SDS011;701;52.526;13.408;2022-11-15T14:46:15;21.13;;;10.90;;
1412;SDS011;701;52.526;13.408;2022-11-15T14:48:41;21.83;;;11.27;;
1412;SDS011;701;52.526;13.408;2022-11-15T14:51:13;23.30;;;11.73;;
1412;SDS011;701;52.526;13.408;2022-11-15T14:53:41;20.08;;;11.63;;
1412;SDS011;701;52.526;13.408;2022-11-15T14:56:07;21.73;;;11.85;;
1412;SDS011;701;52.526;13.408;2022-11-15T14:58:33;21.90;;;12.32;;
1412;SDS011;701;52.526;13.408;2022-11-15T15:00:59;25.77;;;12.27;;
1412;SDS011;701;52.526;13.408;2022-11-15T15:03:26;22.85;;;11.85;;
1412;SDS011;701;52.526;13.408;2022-11-15T15:05:52;27.17;;;11.80;;
1412;SDS011;701;52.526;13.408;2022-11-15T15:08:18;22.95;;;11.68;;
1412;SDS011;701;52.526;13.408;2022-11-15T15:10:44;23.47;;;12.33;;
1412;SDS011;701;52.526;13.408;2022-11-15T15:15:42;22.73;;;12.98;;
1412;SDS011;701;52.526;13.408;2022-11-15T15:18:08;21.83;;;12.35;;
1412;SDS011;701;52.526;13.408;2022-11-15T15:20:40;25.85;;;12.73;;
1412;SDS011;701;52.526;13.408;2022-11-15T15:23:10;25.25;;;12.75;;
1412;SDS011;701;52.526;13.408;2022-11-15T15:25:43;25.63;;;12.65;;
1412;SDS011;701;52.526;13.408;2022-11-15T15:28:10;25.42;;;13.02;;
1412;SDS011;701;52.526;13.408;2022-11-15T15:30:37;27.87;;;13.20;;
1412;SDS011;701;52.526;13.408;2022-11-15T15:33:02;25.05;;;12.98;;
1412;SDS011;701;52.526;13.408;2022-11-15T15:35:32;27.57;;;13.47;;
1412;SDS011;701;52.526;13.408;2022-11-15T15:37:59;26.58;;;13.02;;
1412;SDS011;701;52.526;13.408;2022-11-15T15:40:25;29.35;;;13.65;;
1412;SDS011;701;52.526;13.408;2022-11-15T15:42:54;27.85;;;12.95;;
1412;SDS011;701;52.526;13.408;2022-11-15T15:45:20;30.10;;;13.50;;
1412;SDS011;701;52.526;13.408;2022-11-15T15:47:46;26.83;;;13.75;;
1412;SDS011;701;52.526;13.408;2022-11-15T15:52:43;25.25;;;13.52;;
1412;SDS011;701;52.526;13.408;2022-11-15T15:55:09;30.60;;;14.35;;
1412;SDS011;701;52.526;13.408;2022-11-15T15:57:35;23.43;;;13.70;;
1412;SDS011;701;52.526;13.408;2022-11-15T16:00:02;26.05;;;14.65;;
1412;SDS011;701;52.526;13.408;2022-11-15T16:02:37;27.95;;;14.43;;
1412;SDS011;701;52.526;13.408;2022-11-15T16:05:03;34.15;;;14.43;;
1412;SDS011;701;52.526;13.408;2022-11-15T16:07:29;28.33;;;13.10;;
1412;SDS011;701;52.526;13.408;2022-11-15T16:09:55;28.13;;;14.52;;
1412;SDS011;701;52.526;13.408;2022-11-15T16:12:30;29.58;;;14.25;;
1412;SDS011;701;52.526;13.408;2022-11-15T16:14:58;28.50;;;13.98;;
1412;SDS011;701;52.526;13.408;2022-11-15T16:17:25;26.67;;;14.45;;
1412;SDS011;701;52.526;13.408;2022-11-15T16:19:58;25.88;;;13.82;;
1412;SDS011;701;52.526;13.408;2022-11-15T16:22:24;31.50;;;15.48;;
1412;SDS011;701;52.526;13.408;2022-11-15T16:24:50;29.13;;;15.57;;
1412;SDS011;701;52.526;13.408;2022-11-15T16:27:16;29.40;;;14.93;;
1412;SDS011;701;52.526;13.408;2022-11-15T16:29:44;27.57;;;14.50;;
1412;SDS011;701;52.526;13.408;2022-11-15T16:32:10;31.30;;;15.23;;
1412;SDS011;701;52.526;13.408;2022-11-15T16:34:36;27.23;;;14.88;;
1412;SDS011;701;52.526;13.408;2022-11-15T16:37:02;28.35;;;16.38;;
1412;SDS011;701;52.526;13.408;2022-11-15T16:39:29;28.70;;;17.73;;
1412;SDS011;701;52.526;13.408;2022-11-15T16:41:55;31.65;;;17.15;;
1412;SDS011;701;52.526;13.408;2022-11-15T16:44:22;31.38;;;17.27;;
1412;SDS011;701;52.526;13.408;2022-11-15T16:46:49;33.33;;;17.38;;
1412;SDS011;701;52.526;13.408;2022-11-15T16:49:18;33.45;;;18.50;;
1412;SDS011;701;52.526;13.408;2022-11-15T16:51:45;34.00;;;18.73;;
1412;SDS011;701;52.526;13.408;2022-11-15T16:54:14;36.88;;;20.27;;
1412;SDS011;701;52.526;13.408;2022-11-15T16:56:40;35.83;;;20.38;;
1412;SDS011;701;52.526;13.408;2022-11-15T16:59:08;37.70;;;20.52;;
1412;SDS011;701;52.526;13.408;2022-11-15T17:01:39;39.47;;;22.02;;
1412;SDS011;701;52.526;13.408;2022-11-15T17:04:15;37.17;;;21.45;;
1412;SDS011;701;52.526;13.408;2022-11-15T17:06:44;41.13;;;21.67;;
1412;SDS011;701;52.526;13.408;2022-11-15T17:09:17;40.10;;;22.60;;
1412;SDS011;701;52.526;13.408;2022-11-15T17:11:45;42.63;;;24.15;;
1412;SDS011;701;52.526;13.408;2022-11-15T17:14:11;45.22;;;24.02;;
1412;SDS011;701;52.526;13.408;2022-11-15T17:16:37;43.38;;;23.63;;
1412;SDS011;701;52.526;13.408;2022-11-15T17:19:10;43.05;;;23.38;;
1412;SDS011;701;52.526;13.408;2022-11-15T17:21:38;41.25;;;24.55;;
1412;SDS011;701;52.526;13.408;2022-11-15T17:24:04;44.67;;;24.85;;
1412;SDS011;701;52.526;13.408;2022-11-15T17:26:29;42.10;;;23.77;;
1412;SDS011;701;52.526;13.408;2022-11-15T17:28:55;49.38;;;26.42;;
1412;SDS011;701;52.526;13.408;2022-11-15T17:31:21;45.23;;;25.30;;
1412;SDS011;701;52.526;13.408;2022-11-15T17:33:47;44.80;;;24.42;;
1412;SDS011;701;52.526;13.408;2022-11-15T17:36:12;45.23;;;24.80;;
1412;SDS011;701;52.526;13.408;2022-11-15T17:38:41;47.35;;;25.52;;
1412;SDS011;701;52.526;13.408;2022-11-15T17:41:14;50.75;;;25.58;;
1412;SDS011;701;52.526;13.408;2022-11-15T17:43:40;52.95;;;26.55;;
1412;SDS011;701;52.526;13.408;2022-11-15T17:46:07;48.38;;;26.65;;
1412;SDS011;701;52.526;13.408;2022-11-15T17:48:35;50.30;;;25.80;;
1412;SDS011;701;52.526;13.408;2022-11-15T17:51:02;52.53;;;27.20;;
1412;SDS011;701;52.526;13.408;2022-11-15T17:53:33;52.03;;;27.17;;
1412;SDS011;701;52.526;13.408;2022-11-15T17:56:05;51.17;;;26.92;;
1412;SDS011;701;52.526;13.408;2022-11-15T17:58:32;52.65;;;27.38;;
1412;SDS011;701;52.526;13.408;2022-11-15T18:03:37;50.47;;;27.45;;
1412;SDS011;701;52.526;13.408;2022-11-15T18:06:06;50.70;;;25.83;;
1412;SDS011;701;52.526;13.408;2022-11-15T18:08:36;49.55;;;26.27;;
1412;SDS011;701;52.526;13.408;2022-11-15T18:11:09;54.28;;;26.75;;
1412;SDS011;701;52.526;13.408;2022-11-15T18:13:36;53.90;;;28.05;;
1412;SDS011;701;52.526;13.408;2022-11-15T18:16:04;54.22;;;28.38;;
1412;SDS011;701;52.526;13.408;2022-11-15T18:18:31;52.63;;;26.40;;
1412;SDS011;701;52.526;13.408;2022-11-15T18:20:59;47.30;;;26.70;;
1412;SDS011;701;52.526;13.408;2022-11-15T18:23:25;49.80;;;26.80;;
1412;SDS011;701;52.526;13.408;2022-11-15T18:25:51;53.45;;;27.40;;
1412;SDS011;701;52.526;13.408;2022-11-15T18:28:16;52.72;;;27.42;;
1412;SDS011;701;52.526;13.408;2022-11-15T18:30:42;53.33;;;27.20;;
1412;SDS011;701;52.526;13.408;2022-11-15T18:33:08;54.28;;;26.77;;
1412;SDS011;701;52.526;13.408;2022-11-15T18:35:33;51.27;;;26.47;;
1412;SDS011;701;52.526;13.408;2022-11-15T18:37:59;52.25;;;27.05;;
1412;SDS011;701;52.526;13.408;2022-11-15T18:40:25;50.17;;;26.23;;